sensor_id;sensor_type;location;lat;lon;timestamp;P1;durP1;ratioP1;P2;durP2;ratioP2
46282;SDS011;32017;43.700;11.820;2023-09-19T00:00:42;19.70;;;2.78;;
46282;SDS011;32017;43.700;11.820;2023-09-19T00:02:54;12.85;;;2.95;;
46282;SDS011;32017;43.700;11.820;2023-09-19T00:04:58;13.65;;;2.60;;
46282;SDS011;32017;43.700;11.820;2023-09-19T00:07:00;18.30;;;1.88;;
46282;SDS011;32017;43.700;11.820;2023-09-19T00:09:04;15.80;;;1.70;;
46282;SDS011;32017;43.700;11.820;2023-09-19T00:11:06;15.60;;;2.22;;
46282;SDS011;32017;43.700;11.820;2023-09-19T00:13:08;14.73;;;2.53;;
46282;SDS011;32017;43.700;11.820;2023-09-19T00:15:10;10.45;;;1.90;;
46282;SDS011;32017;43.700;11.820;2023-09-19T00:17:12;12.55;;;1.80;;
46282;SDS011;32017;43.700;11.820;2023-09-19T00:19:14;19.92;;;2.85;;
46282;SDS011;32017;43.700;11.820;2023-09-19T00:21:17;15.98;;;2.25;;
46282;SDS011;32017;43.700;11.820;2023-09-19T00:23:20;14.32;;;1.95;;
46282;SDS011;32017;43.700;11.820;2023-09-19T00:25:22;11.98;;;1.60;;
46282;SDS011;32017;43.700;11.820;2023-09-19T00:27:24;18.88;;;2.15;;
46282;SDS011;32017;43.700;11.820;2023-09-19T00:29:26;10.90;;;2.58;;
46282;SDS011;32017;43.700;11.820;2023-09-19T00:31:30;13.68;;;2.67;;
46282;SDS011;32017;43.700;11.820;2023-09-19T00:33:32;18.40;;;3.03;;
46282;SDS011;32017;43.700;11.820;2023-09-19T00:35:34;17.27;;;2.28;;
46282;SDS011;32017;43.700;11.820;2023-09-19T00:37:36;13.70;;;2.45;;
46282;SDS011;32017;43.700;11.820;2023-09-19T00:39:38;14.48;;;3.15;;
46282;SDS011;32017;43.700;11.820;2023-09-19T00:41:40;7.68;;;1.85;;
46282;SDS011;32017;43.700;11.820;2023-09-19T00:43:42;15.93;;;2.35;;
46282;SDS011;32017;43.700;11.820;2023-09-19T00:45:45;20.70;;;3.42;;
46282;SDS011;32017;43.700;11.820;2023-09-19T00:47:48;15.32;;;3.05;;
46282;SDS011;32017;43.700;11.820;2023-09-19T00:49:51;15.73;;;3.47;;
46282;SDS011;32017;43.700;11.820;2023-09-19T00:51:54;17.92;;;2.63;;
46282;SDS011;32017;43.700;11.820;2023-09-19T00:55:57;19.83;;;2.67;;
46282;SDS011;32017;43.700;11.820;2023-09-19T00:57:59;13.50;;;2.72;;
46282;SDS011;32017;43.700;11.820;2023-09-19T01:00:02;11.73;;;2.00;;
46282;SDS011;32017;43.700;11.820;2023-09-19T01:02:08;21.02;;;2.00;;
46282;SDS011;32017;43.700;11.820;2023-09-19T01:04:10;21.52;;;1.85;;
46282;SDS011;32017;43.700;11.820;2023-09-19T01:06:12;17.30;;;2.78;;
46282;SDS011;32017;43.700;11.820;2023-09-19T01:08:13;19.15;;;2.45;;
46282;SDS011;32017;43.700;11.820;2023-09-19T01:10:16;11.82;;;1.95;;
46282;SDS011;32017;43.700;11.820;2023-09-19T01:12:22;18.35;;;2.58;;
46282;SDS011;32017;43.700;11.820;2023-09-19T01:16:47;18.70;;;2.63;;
46282;SDS011;32017;43.700;11.820;2023-09-19T01:23:17;12.07;;;1.50;;
46282;SDS011;32017;43.700;11.820;2023-09-19T01:29:50;9.32;;;1.30;;
46282;SDS011;32017;43.700;11.820;2023-09-19T01:31:52;9.77;;;1.38;;
46282;SDS011;32017;43.700;11.820;2023-09-19T01:33:57;14.77;;;1.40;;
46282;SDS011;32017;43.700;11.820;2023-09-19T01:36:00;13.45;;;1.65;;
46282;SDS011;32017;43.700;11.820;2023-09-19T01:38:02;11.05;;;1.65;;
46282;SDS011;32017;43.700;11.820;2023-09-19T01:40:04;10.35;;;1.45;;
46282;SDS011;32017;43.700;11.820;2023-09-19T01:42:16;13.02;;;2.05;;
46282;SDS011;32017;43.700;11.820;2023-09-19T01:46:35;17.88;;;1.95;;
46282;SDS011;32017;43.700;11.820;2023-09-19T01:50:59;10.73;;;1.63;;
46282;SDS011;32017;43.700;11.820;2023-09-19T01:53:14;13.90;;;1.75;;
46282;SDS011;32017;43.700;11.820;2023-09-19T01:55:17;13.88;;;1.70;;
46282;SDS011;32017;43.700;11.820;2023-09-19T01:57:29;9.60;;;1.65;;
46282;SDS011;32017;43.700;11.820;2023-09-19T01:59:45;11.48;;;2.20;;
46282;SDS011;32017;43.700;11.820;2023-09-19T02:01:49;10.90;;;1.35;;
46282;SDS011;32017;43.700;11.820;2023-09-19T02:03:51;12.50;;;1.67;;
46282;SDS011;32017;43.700;11.820;2023-09-19T02:05:53;6.70;;;1.50;;
46282;SDS011;32017;43.700;11.820;2023-09-19T02:07:55;9.48;;;2.25;;
46282;SDS011;32017;43.700;11.820;2023-09-19T02:09:58;3.47;;;1.38;;
46282;SDS011;32017;43.700;11.820;2023-09-19T02:12:01;8.02;;;1.20;;
46282;SDS011;32017;43.700;11.820;2023-09-19T02:14:05;8.23;;;1.85;;
46282;SDS011;32017;43.700;11.820;2023-09-19T02:16:10;5.97;;;1.80;;
46282;SDS011;32017;43.700;11.820;2023-09-19T02:18:13;4.97;;;1.83;;
46282;SDS011;32017;43.700;11.820;2023-09-19T02:20:16;8.10;;;1.77;;
46282;SDS011;32017;43.700;11.820;2023-09-19T02:22:18;7.05;;;1.52;;
46282;SDS011;32017;43.700;11.820;2023-09-19T02:24:19;9.70;;;1.75;;
46282;SDS011;32017;43.700;11.820;2023-09-19T02:26:21;10.45;;;1.88;;
46282;SDS011;32017;43.700;11.820;2023-09-19T02:28:26;10.18;;;1.90;;
46282;SDS011;32017;43.700;11.820;2023-09-19T02:30:31;7.70;;;1.50;;
46282;SDS011;32017;43.700;11.820;2023-09-19T02:32:33;10.48;;;1.67;;
46282;SDS011;32017;43.700;11.820;2023-09-19T02:34:38;9.82;;;2.10;;
46282;SDS011;32017;43.700;11.820;2023-09-19T02:36:40;12.48;;;2.08;;
46282;SDS011;32017;43.700;11.820;2023-09-19T02:38:42;4.65;;;1.52;;
46282;SDS011;32017;43.700;11.820;2023-09-19T02:40:43;9.50;;;1.65;;
46282;SDS011;32017;43.700;11.820;2023-09-19T02:42:46;9.30;;;2.15;;
46282;SDS011;32017;43.700;11.820;2023-09-19T02:44:48;12.00;;;3.20;;
46282;SDS011;32017;43.700;11.820;2023-09-19T02:46:50;10.15;;;1.90;;
46282;SDS011;32017;43.700;11.820;2023-09-19T02:48:52;9.55;;;2.00;;
46282;SDS011;32017;43.700;11.820;2023-09-19T02:50:53;7.80;;;3.05;;
46282;SDS011;32017;43.700;11.820;2023-09-19T02:52:55;7.53;;;1.58;;
46282;SDS011;32017;43.700;11.820;2023-09-19T02:54:57;10.63;;;1.90;;
46282;SDS011;32017;43.700;11.820;2023-09-19T02:56:58;10.27;;;1.88;;
46282;SDS011;32017;43.700;11.820;2023-09-19T02:59:00;15.40;;;3.40;;
46282;SDS011;32017;43.700;11.820;2023-09-19T03:01:08;7.68;;;2.55;;
46282;SDS011;32017;43.700;11.820;2023-09-19T03:03:10;7.32;;;2.58;;
46282;SDS011;32017;43.700;11.820;2023-09-19T03:05:12;13.18;;;2.67;;
46282;SDS011;32017;43.700;11.820;2023-09-19T03:07:13;10.95;;;2.28;;
46282;SDS011;32017;43.700;11.820;2023-09-19T03:09:15;6.32;;;2.22;;
46282;SDS011;32017;43.700;11.820;2023-09-19T03:11:17;12.18;;;3.28;;
46282;SDS011;32017;43.700;11.820;2023-09-19T03:13:24;4.80;;;2.30;;
46282;SDS011;32017;43.700;11.820;2023-09-19T03:15:25;6.43;;;2.38;;
46282;SDS011;32017;43.700;11.820;2023-09-19T03:17:27;8.07;;;2.55;;
46282;SDS011;32017;43.700;11.820;2023-09-19T03:19:29;6.55;;;2.05;;
46282;SDS011;32017;43.700;11.820;2023-09-19T03:21:31;5.47;;;1.33;;
46282;SDS011;32017;43.700;11.820;2023-09-19T03:23:32;7.25;;;1.42;;
46282;SDS011;32017;43.700;11.820;2023-09-19T03:25:34;11.38;;;3.25;;
46282;SDS011;32017;43.700;11.820;2023-09-19T03:27:38;9.82;;;2.70;;
46282;SDS011;32017;43.700;11.820;2023-09-19T03:31:41;8.32;;;2.45;;
46282;SDS011;32017;43.700;11.820;2023-09-19T03:33:43;6.07;;;1.85;;
46282;SDS011;32017;43.700;11.820;2023-09-19T03:35:45;7.75;;;1.73;;
46282;SDS011;32017;43.700;11.820;2023-09-19T03:37:53;6.50;;;2.00;;
46282;SDS011;32017;43.700;11.820;2023-09-19T03:39:54;13.00;;;3.20;;
46282;SDS011;32017;43.700;11.820;2023-09-19T03:41:56;7.13;;;1.88;;
46282;SDS011;32017;43.700;11.820;2023-09-19T03:43:57;5.65;;;2.95;;
46282;SDS011;32017;43.700;11.820;2023-09-19T03:46:02;8.02;;;1.85;;
46282;SDS011;32017;43.700;11.820;2023-09-19T03:48:10;6.47;;;2.97;;
46282;SDS011;32017;43.700;11.820;2023-09-19T03:50:12;9.27;;;2.47;;
46282;SDS011;32017;43.700;11.820;2023-09-19T03:52:13;4.78;;;3.30;;
46282;SDS011;32017;43.700;11.820;2023-09-19T03:54:17;7.82;;;2.05;;
46282;SDS011;32017;43.700;11.820;2023-09-19T03:56:20;9.23;;;2.30;;
46282;SDS011;32017;43.700;11.820;2023-09-19T03:58:22;6.40;;;2.50;;
46282;SDS011;32017;43.700;11.820;2023-09-19T04:00:24;5.97;;;3.10;;
46282;SDS011;32017;43.700;11.820;2023-09-19T04:02:27;2.97;;;2.35;;
46282;SDS011;32017;43.700;11.820;2023-09-19T04:04:34;3.80;;;2.67;;
46282;SDS011;32017;43.700;11.820;2023-09-19T04:06:36;7.90;;;2.60;;
46282;SDS011;32017;43.700;11.820;2023-09-19T04:08:38;3.70;;;2.13;;
46282;SDS011;32017;43.700;11.820;2023-09-19T04:10:43;8.13;;;3.22;;
46282;SDS011;32017;43.700;11.820;2023-09-19T04:12:52;3.20;;;2.38;;
46282;SDS011;32017;43.700;11.820;2023-09-19T04:14:54;7.40;;;3.38;;
46282;SDS011;32017;43.700;11.820;2023-09-19T04:16:56;6.30;;;3.28;;
46282;SDS011;32017;43.700;11.820;2023-09-19T04:18:57;10.45;;;2.70;;
46282;SDS011;32017;43.700;11.820;2023-09-19T04:20:59;8.95;;;2.15;;
46282;SDS011;32017;43.700;11.820;2023-09-19T04:23:05;5.88;;;2.15;;
46282;SDS011;32017;43.700;11.820;2023-09-19T04:25:07;6.30;;;2.38;;
46282;SDS011;32017;43.700;11.820;2023-09-19T04:27:08;3.75;;;2.83;;
46282;SDS011;32017;43.700;11.820;2023-09-19T04:31:14;6.57;;;2.63;;
46282;SDS011;32017;43.700;11.820;2023-09-19T04:33:17;5.18;;;2.38;;
46282;SDS011;32017;43.700;11.820;2023-09-19T04:35:19;5.07;;;3.65;;
46282;SDS011;32017;43.700;11.820;2023-09-19T04:37:21;11.65;;;2.58;;
46282;SDS011;32017;43.700;11.820;2023-09-19T04:41:27;6.25;;;2.65;;
46282;SDS011;32017;43.700;11.820;2023-09-19T04:43:29;6.55;;;3.40;;
46282;SDS011;32017;43.700;11.820;2023-09-19T04:45:31;4.53;;;2.88;;
46282;SDS011;32017;43.700;11.820;2023-09-19T04:47:33;4.35;;;2.88;;
46282;SDS011;32017;43.700;11.820;2023-09-19T04:49:35;4.88;;;2.05;;
46282;SDS011;32017;43.700;11.820;2023-09-19T04:51:36;7.47;;;3.17;;
46282;SDS011;32017;43.700;11.820;2023-09-19T04:53:38;7.22;;;2.88;;
46282;SDS011;32017;43.700;11.820;2023-09-19T04:55:40;17.73;;;3.53;;
46282;SDS011;32017;43.700;11.820;2023-09-19T04:57:42;9.35;;;2.72;;
46282;SDS011;32017;43.700;11.820;2023-09-19T04:59:44;5.28;;;2.53;;
46282;SDS011;32017;43.700;11.820;2023-09-19T05:01:46;8.40;;;2.55;;
46282;SDS011;32017;43.700;11.820;2023-09-19T05:03:48;9.50;;;2.45;;
46282;SDS011;32017;43.700;11.820;2023-09-19T05:05:54;4.68;;;2.85;;
46282;SDS011;32017;43.700;11.820;2023-09-19T05:07:55;8.70;;;2.67;;
46282;SDS011;32017;43.700;11.820;2023-09-19T05:09:57;6.88;;;2.42;;
46282;SDS011;32017;43.700;11.820;2023-09-19T05:11:59;5.53;;;2.70;;
46282;SDS011;32017;43.700;11.820;2023-09-19T05:14:01;6.32;;;2.67;;
46282;SDS011;32017;43.700;11.820;2023-09-19T05:16:05;10.40;;;3.10;;
46282;SDS011;32017;43.700;11.820;2023-09-19T05:18:07;7.78;;;2.78;;
46282;SDS011;32017;43.700;11.820;2023-09-19T05:20:08;7.90;;;3.20;;
46282;SDS011;32017;43.700;11.820;2023-09-19T05:22:16;4.65;;;2.75;;
46282;SDS011;32017;43.700;11.820;2023-09-19T05:24:20;3.65;;;3.15;;
46282;SDS011;32017;43.700;11.820;2023-09-19T05:26:24;6.28;;;3.90;;
46282;SDS011;32017;43.700;11.820;2023-09-19T05:28:26;5.65;;;3.05;;
46282;SDS011;32017;43.700;11.820;2023-09-19T05:30:28;10.52;;;3.53;;
46282;SDS011;32017;43.700;11.820;2023-09-19T05:32:30;6.10;;;2.92;;
46282;SDS011;32017;43.700;11.820;2023-09-19T05:34:32;8.70;;;3.60;;
46282;SDS011;32017;43.700;11.820;2023-09-19T05:36:34;3.20;;;2.97;;
46282;SDS011;32017;43.700;11.820;2023-09-19T05:38:35;9.60;;;3.80;;
46282;SDS011;32017;43.700;11.820;2023-09-19T05:40:37;8.98;;;2.97;;
46282;SDS011;32017;43.700;11.820;2023-09-19T05:42:40;5.88;;;3.13;;
46282;SDS011;32017;43.700;11.820;2023-09-19T05:44:42;8.85;;;3.85;;
46282;SDS011;32017;43.700;11.820;2023-09-19T05:46:44;9.70;;;3.42;;
46282;SDS011;32017;43.700;11.820;2023-09-19T05:48:47;5.30;;;3.17;;
46282;SDS011;32017;43.700;11.820;2023-09-19T05:50:49;6.93;;;4.35;;
46282;SDS011;32017;43.700;11.820;2023-09-19T05:52:51;4.22;;;3.88;;
46282;SDS011;32017;43.700;11.820;2023-09-19T05:54:54;4.75;;;3.40;;
46282;SDS011;32017;43.700;11.820;2023-09-19T05:56:55;10.90;;;3.13;;
46282;SDS011;32017;43.700;11.820;2023-09-19T05:58:59;7.05;;;4.68;;
46282;SDS011;32017;43.700;11.820;2023-09-19T06:03:03;3.92;;;3.58;;
46282;SDS011;32017;43.700;11.820;2023-09-19T06:05:05;3.53;;;2.85;;
46282;SDS011;32017;43.700;11.820;2023-09-19T06:07:12;5.43;;;3.00;;
46282;SDS011;32017;43.700;11.820;2023-09-19T06:09:14;8.55;;;3.38;;
46282;SDS011;32017;43.700;11.820;2023-09-19T06:11:16;11.75;;;4.57;;
46282;SDS011;32017;43.700;11.820;2023-09-19T06:13:17;3.58;;;3.25;;
46282;SDS011;32017;43.700;11.820;2023-09-19T06:17:26;8.20;;;3.45;;
46282;SDS011;32017;43.700;11.820;2023-09-19T06:19:30;9.30;;;3.30;;
46282;SDS011;32017;43.700;11.820;2023-09-19T06:21:31;6.70;;;2.78;;
46282;SDS011;32017;43.700;11.820;2023-09-19T06:23:34;6.82;;;3.75;;
46282;SDS011;32017;43.700;11.820;2023-09-19T06:25:36;6.88;;;3.03;;
46282;SDS011;32017;43.700;11.820;2023-09-19T06:27:38;6.63;;;3.83;;
46282;SDS011;32017;43.700;11.820;2023-09-19T06:29:42;8.23;;;3.88;;
46282;SDS011;32017;43.700;11.820;2023-09-19T06:31:44;5.15;;;2.13;;
46282;SDS011;32017;43.700;11.820;2023-09-19T06:33:46;7.40;;;3.63;;
46282;SDS011;32017;43.700;11.820;2023-09-19T06:35:49;3.95;;;2.63;;
46282;SDS011;32017;43.700;11.820;2023-09-19T06:37:50;7.57;;;2.70;;
46282;SDS011;32017;43.700;11.820;2023-09-19T06:39:52;4.60;;;3.42;;
46282;SDS011;32017;43.700;11.820;2023-09-19T06:41:54;7.80;;;2.90;;
46282;SDS011;32017;43.700;11.820;2023-09-19T06:43:56;5.22;;;2.65;;
46282;SDS011;32017;43.700;11.820;2023-09-19T06:45:57;11.10;;;3.60;;
46282;SDS011;32017;43.700;11.820;2023-09-19T06:47:59;4.13;;;2.78;;
46282;SDS011;32017;43.700;11.820;2023-09-19T06:50:02;7.63;;;3.42;;
46282;SDS011;32017;43.700;11.820;2023-09-19T06:52:04;5.05;;;3.58;;
46282;SDS011;32017;43.700;11.820;2023-09-19T06:54:06;6.22;;;4.15;;
46282;SDS011;32017;43.700;11.820;2023-09-19T06:56:07;9.52;;;4.65;;
46282;SDS011;32017;43.700;11.820;2023-09-19T06:58:09;8.40;;;2.75;;
46282;SDS011;32017;43.700;11.820;2023-09-19T07:00:12;7.47;;;4.05;;
46282;SDS011;32017;43.700;11.820;2023-09-19T07:02:17;8.43;;;3.00;;
46282;SDS011;32017;43.700;11.820;2023-09-19T07:04:19;23.27;;;4.07;;
46282;SDS011;32017;43.700;11.820;2023-09-19T07:06:23;56.97;;;8.23;;
46282;SDS011;32017;43.700;11.820;2023-09-19T07:08:25;23.13;;;5.38;;
46282;SDS011;32017;43.700;11.820;2023-09-19T07:10:27;25.38;;;3.50;;
46282;SDS011;32017;43.700;11.820;2023-09-19T07:12:30;7.18;;;2.95;;
46282;SDS011;32017;43.700;11.820;2023-09-19T07:14:31;23.65;;;4.55;;
46282;SDS011;32017;43.700;11.820;2023-09-19T07:16:33;28.20;;;5.35;;
46282;SDS011;32017;43.700;11.820;2023-09-19T07:18:35;9.60;;;4.03;;
46282;SDS011;32017;43.700;11.820;2023-09-19T07:20:38;27.63;;;5.40;;
46282;SDS011;32017;43.700;11.820;2023-09-19T07:22:39;12.63;;;4.68;;
46282;SDS011;32017;43.700;11.820;2023-09-19T07:24:41;6.90;;;3.45;;
46282;SDS011;32017;43.700;11.820;2023-09-19T07:26:44;6.90;;;3.40;;
46282;SDS011;32017;43.700;11.820;2023-09-19T07:28:46;7.38;;;3.53;;
46282;SDS011;32017;43.700;11.820;2023-09-19T07:30:48;7.15;;;2.80;;
46282;SDS011;32017;43.700;11.820;2023-09-19T07:32:50;14.90;;;3.50;;
46282;SDS011;32017;43.700;11.820;2023-09-19T07:34:51;27.65;;;7.13;;
46282;SDS011;32017;43.700;11.820;2023-09-19T07:36:53;10.75;;;4.47;;
46282;SDS011;32017;43.700;11.820;2023-09-19T07:38:55;6.72;;;3.25;;
46282;SDS011;32017;43.700;11.820;2023-09-19T07:41:18;16.60;;;3.60;;
46282;SDS011;32017;43.700;11.820;2023-09-19T07:43:20;3.85;;;2.50;;
46282;SDS011;32017;43.700;11.820;2023-09-19T07:45:22;7.32;;;3.63;;
46282;SDS011;32017;43.700;11.820;2023-09-19T07:47:24;10.60;;;2.50;;
46282;SDS011;32017;43.700;11.820;2023-09-19T07:49:25;17.98;;;3.38;;
46282;SDS011;32017;43.700;11.820;2023-09-19T07:51:27;4.47;;;2.25;;
46282;SDS011;32017;43.700;11.820;2023-09-19T07:53:29;9.05;;;2.42;;
46282;SDS011;32017;43.700;11.820;2023-09-19T07:55:31;4.03;;;2.60;;
46282;SDS011;32017;43.700;11.820;2023-09-19T07:57:35;7.45;;;2.25;;
46282;SDS011;32017;43.700;11.820;2023-09-19T07:59:37;5.32;;;1.90;;
46282;SDS011;32017;43.700;11.820;2023-09-19T08:01:39;6.43;;;1.60;;
46282;SDS011;32017;43.700;11.820;2023-09-19T08:03:42;4.65;;;2.80;;
46282;SDS011;32017;43.700;11.820;2023-09-19T08:05:45;5.88;;;2.22;;
46282;SDS011;32017;43.700;11.820;2023-09-19T08:07:47;8.70;;;2.28;;
46282;SDS011;32017;43.700;11.820;2023-09-19T08:09:52;5.85;;;1.92;;
46282;SDS011;32017;43.700;11.820;2023-09-19T08:11:53;5.10;;;2.58;;
46282;SDS011;32017;43.700;11.820;2023-09-19T08:13:55;6.70;;;2.58;;
46282;SDS011;32017;43.700;11.820;2023-09-19T08:15:57;5.07;;;1.45;;
46282;SDS011;32017;43.700;11.820;2023-09-19T08:17:59;6.93;;;1.85;;
46282;SDS011;32017;43.700;11.820;2023-09-19T08:20:01;15.50;;;2.30;;
46282;SDS011;32017;43.700;11.820;2023-09-19T08:22:04;7.22;;;1.58;;
46282;SDS011;32017;43.700;11.820;2023-09-19T08:24:06;7.93;;;1.77;;
46282;SDS011;32017;43.700;11.820;2023-09-19T08:26:08;9.05;;;1.50;;
46282;SDS011;32017;43.700;11.820;2023-09-19T08:28:10;5.50;;;1.20;;
46282;SDS011;32017;43.700;11.820;2023-09-19T08:30:16;7.93;;;1.30;;
46282;SDS011;32017;43.700;11.820;2023-09-19T08:32:17;4.55;;;1.90;;
46282;SDS011;32017;43.700;11.820;2023-09-19T08:34:22;6.88;;;1.67;;
46282;SDS011;32017;43.700;11.820;2023-09-19T08:36:24;5.38;;;1.10;;
46282;SDS011;32017;43.700;11.820;2023-09-19T08:38:26;4.05;;;1.40;;
46282;SDS011;32017;43.700;11.820;2023-09-19T08:40:32;6.03;;;1.13;;
46282;SDS011;32017;43.700;11.820;2023-09-19T08:42:50;3.75;;;1.58;;
46282;SDS011;32017;43.700;11.820;2023-09-19T08:44:52;7.78;;;1.38;;
46282;SDS011;32017;43.700;11.820;2023-09-19T08:47:03;4.60;;;1.63;;
46282;SDS011;32017;43.700;11.820;2023-09-19T08:49:13;3.20;;;0.98;;
46282;SDS011;32017;43.700;11.820;2023-09-19T08:51:26;8.32;;;1.42;;
46282;SDS011;32017;43.700;11.820;2023-09-19T08:53:34;7.65;;;1.30;;
46282;SDS011;32017;43.700;11.820;2023-09-19T08:55:39;11.25;;;1.60;;
46282;SDS011;32017;43.700;11.820;2023-09-19T08:57:42;7.22;;;2.35;;
46282;SDS011;32017;43.700;11.820;2023-09-19T08:59:45;4.18;;;1.17;;
46282;SDS011;32017;43.700;11.820;2023-09-19T09:01:47;2.72;;;1.00;;
46282;SDS011;32017;43.700;11.820;2023-09-19T09:05:51;3.40;;;1.02;;
46282;SDS011;32017;43.700;11.820;2023-09-19T09:07:53;5.65;;;0.90;;
46282;SDS011;32017;43.700;11.820;2023-09-19T09:09:58;3.65;;;1.00;;
46282;SDS011;32017;43.700;11.820;2023-09-19T09:14:01;2.42;;;1.10;;
46282;SDS011;32017;43.700;11.820;2023-09-19T09:16:03;9.93;;;1.73;;
46282;SDS011;32017;43.700;11.820;2023-09-19T09:18:05;4.18;;;1.15;;
46282;SDS011;32017;43.700;11.820;2023-09-19T09:20:07;9.27;;;1.33;;
46282;SDS011;32017;43.700;11.820;2023-09-19T09:22:11;4.63;;;1.33;;
46282;SDS011;32017;43.700;11.820;2023-09-19T09:24:29;5.43;;;1.13;;
46282;SDS011;32017;43.700;11.820;2023-09-19T09:26:40;2.60;;;0.90;;
46282;SDS011;32017;43.700;11.820;2023-09-19T09:28:46;8.20;;;1.52;;
46282;SDS011;32017;43.700;11.820;2023-09-19T09:30:49;8.43;;;1.02;;
46282;SDS011;32017;43.700;11.820;2023-09-19T09:33:07;5.95;;;1.48;;
46282;SDS011;32017;43.700;11.820;2023-09-19T09:35:12;5.28;;;0.90;;
46282;SDS011;32017;43.700;11.820;2023-09-19T09:37:16;5.43;;;1.02;;
46282;SDS011;32017;43.700;11.820;2023-09-19T09:39:31;3.97;;;0.90;;
46282;SDS011;32017;43.700;11.820;2023-09-19T09:43:37;2.17;;;0.93;;
46282;SDS011;32017;43.700;11.820;2023-09-19T09:45:41;2.85;;;1.48;;
46282;SDS011;32017;43.700;11.820;2023-09-19T09:47:49;5.28;;;1.50;;
46282;SDS011;32017;43.700;11.820;2023-09-19T09:49:55;3.90;;;1.10;;
46282;SDS011;32017;43.700;11.820;2023-09-19T09:52:09;5.47;;;1.45;;
46282;SDS011;32017;43.700;11.820;2023-09-19T09:54:18;2.63;;;0.77;;
46282;SDS011;32017;43.700;11.820;2023-09-19T09:56:23;1.92;;;1.17;;
46282;SDS011;32017;43.700;11.820;2023-09-19T09:58:26;2.40;;;0.80;;
46282;SDS011;32017;43.700;11.820;2023-09-19T10:00:31;6.13;;;1.33;;
46282;SDS011;32017;43.700;11.820;2023-09-19T10:02:43;4.72;;;0.80;;
46282;SDS011;32017;43.700;11.820;2023-09-19T10:04:48;1.52;;;0.88;;
46282;SDS011;32017;43.700;11.820;2023-09-19T10:06:53;4.95;;;0.90;;
46282;SDS011;32017;43.700;11.820;2023-09-19T10:10:56;5.55;;;1.05;;
46282;SDS011;32017;43.700;11.820;2023-09-19T10:13:07;7.80;;;1.00;;
46282;SDS011;32017;43.700;11.820;2023-09-19T10:15:10;6.95;;;1.00;;
46282;SDS011;32017;43.700;11.820;2023-09-19T10:17:12;2.13;;;0.80;;
46282;SDS011;32017;43.700;11.820;2023-09-19T10:19:21;2.20;;;0.80;;
46282;SDS011;32017;43.700;11.820;2023-09-19T10:21:27;1.45;;;0.77;;
46282;SDS011;32017;43.700;11.820;2023-09-19T10:23:31;6.68;;;0.85;;
46282;SDS011;32017;43.700;11.820;2023-09-19T10:25:36;1.55;;;0.93;;
46282;SDS011;32017;43.700;11.820;2023-09-19T10:27:38;5.07;;;0.90;;
46282;SDS011;32017;43.700;11.820;2023-09-19T10:29:40;5.45;;;1.05;;
46282;SDS011;32017;43.700;11.820;2023-09-19T10:33:49;1.70;;;0.93;;
46282;SDS011;32017;43.700;11.820;2023-09-19T10:35:51;2.00;;;0.70;;
46282;SDS011;32017;43.700;11.820;2023-09-19T10:37:54;2.97;;;0.70;;
46282;SDS011;32017;43.700;11.820;2023-09-19T10:39:56;1.88;;;0.77;;
46282;SDS011;32017;43.700;11.820;2023-09-19T10:41:58;3.97;;;0.68;;
46282;SDS011;32017;43.700;11.820;2023-09-19T10:44:04;5.97;;;0.70;;
46282;SDS011;32017;43.700;11.820;2023-09-19T10:46:08;2.90;;;0.70;;
46282;SDS011;32017;43.700;11.820;2023-09-19T10:48:14;1.08;;;0.73;;
46282;SDS011;32017;43.700;11.820;2023-09-19T10:50:20;2.78;;;0.63;;
46282;SDS011;32017;43.700;11.820;2023-09-19T10:52:24;2.45;;;1.05;;
46282;SDS011;32017;43.700;11.820;2023-09-19T10:54:27;0.73;;;0.60;;
46282;SDS011;32017;43.700;11.820;2023-09-19T10:56:31;2.42;;;0.73;;
46282;SDS011;32017;43.700;11.820;2023-09-19T10:58:34;1.88;;;0.60;;
46282;SDS011;32017;43.700;11.820;2023-09-19T11:05:16;2.25;;;0.60;;
46282;SDS011;32017;43.700;11.820;2023-09-19T11:07:18;3.50;;;0.60;;
46282;SDS011;32017;43.700;11.820;2023-09-19T11:09:19;2.53;;;0.52;;
46282;SDS011;32017;43.700;11.820;2023-09-19T11:13:41;1.20;;;0.60;;
46282;SDS011;32017;43.700;11.820;2023-09-19T11:17:59;2.15;;;0.70;;
46282;SDS011;32017;43.700;11.820;2023-09-19T11:22:03;2.20;;;0.50;;
46282;SDS011;32017;43.700;11.820;2023-09-19T11:26:44;2.58;;;0.57;;
46282;SDS011;32017;43.700;11.820;2023-09-19T11:28:49;1.48;;;0.60;;
46282;SDS011;32017;43.700;11.820;2023-09-19T11:33:43;4.13;;;0.52;;
46282;SDS011;32017;43.700;11.820;2023-09-19T11:38:07;2.15;;;0.50;;
46282;SDS011;32017;43.700;11.820;2023-09-19T11:40:12;4.53;;;0.55;;
46282;SDS011;32017;43.700;11.820;2023-09-19T11:44:37;2.15;;;0.50;;
46282;SDS011;32017;43.700;11.820;2023-09-19T11:46:51;1.00;;;0.40;;
46282;SDS011;32017;43.700;11.820;2023-09-19T11:48:54;3.70;;;0.50;;
46282;SDS011;32017;43.700;11.820;2023-09-19T11:50:55;3.50;;;0.50;;
46282;SDS011;32017;43.700;11.820;2023-09-19T11:52:58;5.88;;;1.00;;
46282;SDS011;32017;43.700;11.820;2023-09-19T11:55:00;3.85;;;0.50;;
46282;SDS011;32017;43.700;11.820;2023-09-19T11:57:03;2.63;;;0.52;;
46282;SDS011;32017;43.700;11.820;2023-09-19T11:59:05;1.50;;;0.40;;
46282;SDS011;32017;43.700;11.820;2023-09-19T12:01:08;1.92;;;0.47;;
46282;SDS011;32017;43.700;11.820;2023-09-19T12:03:15;1.00;;;0.50;;
46282;SDS011;32017;43.700;11.820;2023-09-19T12:05:28;2.15;;;0.60;;
46282;SDS011;32017;43.700;11.820;2023-09-19T12:07:29;2.60;;;0.40;;
46282;SDS011;32017;43.700;11.820;2023-09-19T12:09:32;0.82;;;0.50;;
46282;SDS011;32017;43.700;11.820;2023-09-19T12:11:34;2.35;;;0.50;;
46282;SDS011;32017;43.700;11.820;2023-09-19T12:13:44;2.03;;;0.50;;
46282;SDS011;32017;43.700;11.820;2023-09-19T12:15:47;1.48;;;0.45;;
46282;SDS011;32017;43.700;11.820;2023-09-19T12:17:51;0.80;;;0.50;;
46282;SDS011;32017;43.700;11.820;2023-09-19T12:22:01;1.10;;;0.50;;
46282;SDS011;32017;43.700;11.820;2023-09-19T12:24:07;1.45;;;0.60;;
46282;SDS011;32017;43.700;11.820;2023-09-19T12:26:14;3.30;;;0.50;;
46282;SDS011;32017;43.700;11.820;2023-09-19T12:28:16;1.92;;;0.50;;
46282;SDS011;32017;43.700;11.820;2023-09-19T12:30:29;1.30;;;0.70;;
46282;SDS011;32017;43.700;11.820;2023-09-19T12:32:35;1.60;;;0.50;;
46282;SDS011;32017;43.700;11.820;2023-09-19T12:34:37;3.58;;;0.50;;
46282;SDS011;32017;43.700;11.820;2023-09-19T12:36:44;1.10;;;0.50;;
46282;SDS011;32017;43.700;11.820;2023-09-19T12:38:47;0.70;;;0.45;;
46282;SDS011;32017;43.700;11.820;2023-09-19T12:40:49;2.50;;;0.40;;
46282;SDS011;32017;43.700;11.820;2023-09-19T12:42:53;3.42;;;0.45;;
46282;SDS011;32017;43.700;11.820;2023-09-19T12:45:00;5.32;;;0.80;;
46282;SDS011;32017;43.700;11.820;2023-09-19T12:47:09;0.52;;;0.47;;
46282;SDS011;32017;43.700;11.820;2023-09-19T12:49:18;2.33;;;0.50;;
46282;SDS011;32017;43.700;11.820;2023-09-19T12:51:20;0.63;;;0.43;;
46282;SDS011;32017;43.700;11.820;2023-09-19T12:53:25;1.33;;;0.60;;
46282;SDS011;32017;43.700;11.820;2023-09-19T12:55:27;0.85;;;0.40;;
46282;SDS011;32017;43.700;11.820;2023-09-19T12:57:29;2.40;;;0.68;;
46282;SDS011;32017;43.700;11.820;2023-09-19T12:59:33;1.35;;;0.50;;
46282;SDS011;32017;43.700;11.820;2023-09-19T13:01:40;3.53;;;0.60;;
46282;SDS011;32017;43.700;11.820;2023-09-19T13:04:10;1.25;;;0.50;;
46282;SDS011;32017;43.700;11.820;2023-09-19T13:06:09;4.47;;;0.50;;
46282;SDS011;32017;43.700;11.820;2023-09-19T13:10:17;0.45;;;0.43;;
46282;SDS011;32017;43.700;11.820;2023-09-19T13:12:38;0.75;;;0.50;;
46282;SDS011;32017;43.700;11.820;2023-09-19T13:14:40;4.05;;;0.57;;